Azalea Ace — A8ZJ6 — position and weather

sailwx.info

Track history (hours):
 
Tides and Currents Weather Stations Pressure Air Temp Water Temp Dewpoint Dewpoint Depression Visibility Wind Speed Wind Dir Waves Ship Positions

Azalea Ace

Last reported at 2016-Sep-24 02:24 UTC. Time now 2016-Sep-28 23:59 UTC.
Position S 38°44' E 141°42'.

Length 180 m; draft 7.4 m.

Type: Cargo ship. MMSI: 636015228.

Date/timePositionNaut miles runAvg speedWind from/ knotsBaromVisibWave heightAir tempDewpointWater temp
2016-Sep-24 02:24S 38°44' E 141°42'1113.0
2016-Sep-24 01:33S 38°45' E 141°56'1313.2
2016-Sep-24 00:32S 38°47' E 142°12'197 5.5
2016-Sep-22 12:33S 39°11' E 146°25'11914.9
2016-Sep-22 04:33S 38°29' E 148°48'1514.5
2016-Sep-22 03:33S 38°20' E 149°03'4515.1
2016-Sep-22 00:33S 37°53' E 149°49'1514.7
2016-Sep-21 23:34S 37°45' E 150°04'1414.4
2016-Sep-21 22:33S 37°31' E 150°11'4414.8
2016-Sep-21 19:33S 36°48' E 150°25'4614.9
2016-Sep-21 16:30S 36°04' E 150°40'182 6.7
2016-Sep-20 13:10S 33°15' E 151°59'4216.2
2016-Sep-20 10:33S 32°41' E 152°29'29116.2
2016-Sep-19 16:33S 27°57' E 153°44'3517.3
2016-Sep-19 14:33S 27°22' E 153°42'1817.8
2016-Sep-19 13:33S 27°05' E 153°39'1615.5
2016-Sep-19 12:34S 26°53' E 153°28'1615.9
2016-Sep-19 11:34S 26°43' E 153°14'2311.4
2016-Sep-19 09:33S 27°05' E 153°19'19 9.3
2016-Sep-19 07:31S 27°23' E 153°10'0 0.0
2016-Sep-19 06:31S 27°23' E 153°10'0 0.0
2016-Sep-19 03:31S 27°23' E 153°10'0 0.0
2016-Sep-19 02:31S 27°23' E 153°10'0 0.0
2016-Sep-19 00:31S 27°23' E 153°10'8 1.7
2016-Sep-18 19:33S 27°16' E 153°16'4310.7
2016-Sep-18 15:31S 26°35' E 153°32'  
Track history (hours):
 
Tides and Currents Weather Stations Pressure Air Temp Water Temp Dewpoint Dewpoint Depression Visibility Wind Speed Wind Dir Waves Ship Positions

Azalea Ace

Last reported at 2016-Sep-24 02:24 UTC. Time now 2016-Sep-28 23:59 UTC.
Position S 38°44' E 141°42'.

Length 180 m; draft 7.4 m.

Type: Cargo ship. MMSI: 636015228.

Date/timePositionNaut miles runAvg speedWind from/ knotsBaromVisibWave heightAir tempDewpointWater temp
2016-Sep-24 02:24S 38°44' E 141°42'1113.0
2016-Sep-24 01:33S 38°45' E 141°56'1313.2
2016-Sep-24 00:32S 38°47' E 142°12'197 5.5
2016-Sep-22 12:33S 39°11' E 146°25'11914.9
2016-Sep-22 04:33S 38°29' E 148°48'1514.5
2016-Sep-22 03:33S 38°20' E 149°03'4515.1
2016-Sep-22 00:33S 37°53' E 149°49'1514.7
2016-Sep-21 23:34S 37°45' E 150°04'1414.4
2016-Sep-21 22:33S 37°31' E 150°11'4414.8
2016-Sep-21 19:33S 36°48' E 150°25'4614.9
2016-Sep-21 16:30S 36°04' E 150°40'182 6.7
2016-Sep-20 13:10S 33°15' E 151°59'4216.2
2016-Sep-20 10:33S 32°41' E 152°29'29116.2
2016-Sep-19 16:33S 27°57' E 153°44'3517.3
2016-Sep-19 14:33S 27°22' E 153°42'1817.8
2016-Sep-19 13:33S 27°05' E 153°39'1615.5
2016-Sep-19 12:34S 26°53' E 153°28'1615.9
2016-Sep-19 11:34S 26°43' E 153°14'2311.4
2016-Sep-19 09:33S 27°05' E 153°19'19 9.3
2016-Sep-19 07:31S 27°23' E 153°10'0 0.0
2016-Sep-19 06:31S 27°23' E 153°10'0 0.0
2016-Sep-19 03:31S 27°23' E 153°10'0 0.0
2016-Sep-19 02:31S 27°23' E 153°10'0 0.0
2016-Sep-19 00:31S 27°23' E 153°10'8 1.7
2016-Sep-18 19:33S 27°16' E 153°16'4310.7
2016-Sep-18 15:31S 26°35' E 153°32'  

Dump ship's entire track history